Time;durP1;ratioP1;P1;durP2;ratioP2;P2;SDS_P1;SDS_P2;PMS_P1;PMS_P2;Temp;Humidity;BMP_temperature;BMP_pressure;BME280_temperature;BME280_humidity;BME280_pressure;Samples;Min_cycle;Max_cycle;Signal;HPM_P1;HPM_P2
2024/01/08 00:00:46;;;;;;;11.35;5.88;;;;;;;;;;4962904;28;20042;-83
2024/01/08 00:03:12;;;;;;;9.70;5.70;;;;;;;;;;4983525;28;20568;-83
2024/01/08 00:05:38;;;;;;;12.30;5.88;;;;;;;;;;4960260;28;20043;-85
2024/01/08 00:08:08;;;;;;;9.75;6.00;;;;;;;;;;4969828;28;20035;-85
2024/01/08 00:10:34;;;;;;;9.18;5.65;;;;;;;;;;4969467;28;20030;-84
2024/01/08 00:13:00;;;;;;;12.57;6.60;;;;;;;;;;4962305;28;20038;-83
2024/01/08 00:15:25;;;;;;;10.82;6.28;;;;;;;;;;4965284;28;20037;-84
2024/01/08 00:17:51;;;;;;;10.20;6.32;;;;;;;;;;4979270;28;20029;-83
2024/01/08 00:20:17;;;;;;;12.15;6.43;;;;;;;;;;4977281;28;20067;-83
2024/01/08 00:22:43;;;;;;;11.57;6.28;;;;;;;;;;4975976;28;20070;-84
2024/01/08 00:25:08;;;;;;;14.05;6.85;;;;;;;;;;4964993;28;20061;-83
2024/01/08 00:27:34;;;;;;;10.93;6.55;;;;;;;;;;4980711;28;20117;-82
2024/01/08 00:29:59;;;;;;;12.25;6.82;;;;;;;;;;4983360;28;20113;-83
2024/01/08 00:32:25;;;;;;;11.07;6.30;;;;;;;;;;4984428;28;20072;-84
2024/01/08 00:34:51;;;;;;;10.68;6.18;;;;;;;;;;4975751;28;20049;-83
2024/01/08 00:37:16;;;;;;;12.95;6.80;;;;;;;;;;4977510;28;20039;-83
2024/01/08 00:39:43;;;;;;;13.93;7.18;;;;;;;;;;4963078;28;20384;-83
2024/01/08 00:42:09;;;;;;;10.75;6.43;;;;;;;;;;4962369;28;20028;-83
2024/01/08 00:44:34;;;;;;;14.07;6.72;;;;;;;;;;4981575;28;20600;-83
2024/01/08 00:47:00;;;;;;;10.68;6.15;;;;;;;;;;4982971;28;20038;-84
2024/01/08 00:49:25;;;;;;;10.75;6.28;;;;;;;;;;4980995;28;20034;-83
2024/01/08 00:51:51;;;;;;;11.98;6.68;;;;;;;;;;4982737;28;20035;-85
2024/01/08 00:54:16;;;;;;;13.55;6.57;;;;;;;;;;4980273;28;20088;-84
2024/01/08 00:56:42;;;;;;;11.57;6.68;;;;;;;;;;4979303;28;20034;-83
2024/01/08 00:59:07;;;;;;;11.07;6.32;;;;;;;;;;4984102;28;20034;-85
2024/01/08 01:01:33;;;;;;;10.10;6.38;;;;;;;;;;4965976;28;20030;-85
2024/01/08 01:03:59;;;;;;;10.10;6.10;;;;;;;;;;4979658;28;20284;-83
2024/01/08 01:06:24;;;;;;;12.80;7.03;;;;;;;;;;4983644;28;20451;-84
2024/01/08 01:08:50;;;;;;;8.98;5.68;;;;;;;;;;4983561;28;20034;-83
2024/01/08 01:11:16;;;;;;;11.48;6.65;;;;;;;;;;4986497;28;20053;-83
2024/01/08 01:13:41;;;;;;;12.07;6.97;;;;;;;;;;4984056;28;20381;-83
2024/01/08 01:16:07;;;;;;;11.68;6.80;;;;;;;;;;4982722;28;20093;-83
2024/01/08 01:18:32;;;;;;;11.13;6.40;;;;;;;;;;4984439;28;20084;-83
2024/01/08 01:20:58;;;;;;;10.68;6.18;;;;;;;;;;4967895;28;20034;-83
2024/01/08 01:23:24;;;;;;;9.82;6.30;;;;;;;;;;4982545;28;20034;-84
2024/01/08 01:25:49;;;;;;;11.75;6.82;;;;;;;;;;4979395;28;20488;-84
2024/01/08 01:28:15;;;;;;;13.52;6.95;;;;;;;;;;4984849;28;20113;-82
2024/01/08 01:30:40;;;;;;;12.52;7.10;;;;;;;;;;4984523;28;20496;-82
2024/01/08 01:33:06;;;;;;;11.75;6.78;;;;;;;;;;4985211;28;20026;-83
2024/01/08 01:35:31;;;;;;;12.68;6.43;;;;;;;;;;4968944;28;20091;-83
2024/01/08 01:37:58;;;;;;;11.57;6.75;;;;;;;;;;4980682;28;20027;-83
2024/01/08 01:40:25;;;;;;;12.55;6.57;;;;;;;;;;4984779;28;20026;-83
2024/01/08 01:42:54;;;;;;;11.73;6.40;;;;;;;;;;4984483;28;20046;-83
2024/01/08 01:45:23;;;;;;;12.32;6.40;;;;;;;;;;4967565;28;20459;-86
2024/01/08 01:47:51;;;;;;;11.23;6.55;;;;;;;;;;4978041;28;20038;-84
2024/01/08 01:50:17;;;;;;;11.90;6.15;;;;;;;;;;4983345;28;20488;-84
2024/01/08 01:52:42;;;;;;;12.48;6.38;;;;;;;;;;4957797;28;20050;-83
2024/01/08 01:55:10;;;;;;;13.00;6.70;;;;;;;;;;4951239;28;20499;-83
2024/01/08 01:57:36;;;;;;;10.35;6.32;;;;;;;;;;4965349;28;20431;-84
2024/01/08 02:00:02;;;;;;;11.70;6.35;;;;;;;;;;4989316;28;20030;-84
2024/01/08 02:02:39;;;;;;;10.27;6.25;;;;;;;;;;4985436;28;20038;-83
2024/01/08 02:05:04;;;;;;;10.48;6.00;;;;;;;;;;4984992;28;20037;-83
2024/01/08 02:07:31;;;;;;;11.43;6.43;;;;;;;;;;4979812;28;20031;-83
2024/01/08 02:09:56;;;;;;;12.00;6.53;;;;;;;;;;4968181;28;20031;-84
2024/01/08 02:12:24;;;;;;;9.98;5.75;;;;;;;;;;4967782;28;20046;-83
2024/01/08 02:14:49;;;;;;;10.25;6.07;;;;;;;;;;4967080;28;20043;-83
2024/01/08 02:17:15;;;;;;;11.85;6.50;;;;;;;;;;4982591;28;20042;-84
2024/01/08 02:19:40;;;;;;;9.85;6.18;;;;;;;;;;4978957;28;20126;-84
2024/01/08 02:22:05;;;;;;;11.18;6.30;;;;;;;;;;4983011;28;20068;-84
2024/01/08 02:24:31;;;;;;;10.80;5.78;;;;;;;;;;4986316;28;20142;-83
2024/01/08 02:27:00;;;;;;;11.02;6.00;;;;;;;;;;4980752;28;20050;-84
2024/01/08 02:29:27;;;;;;;11.02;6.22;;;;;;;;;;4979211;28;20484;-83
2024/01/08 02:31:53;;;;;;;10.98;6.28;;;;;;;;;;4982984;28;20122;-85
2024/01/08 02:34:18;;;;;;;12.05;6.55;;;;;;;;;;4983547;28;20618;-84
2024/01/08 02:36:44;;;;;;;10.60;6.40;;;;;;;;;;4984008;28;20046;-82
2024/01/08 02:39:09;;;;;;;11.88;6.38;;;;;;;;;;4979765;28;20093;-85
2024/01/08 02:41:34;;;;;;;10.68;6.10;;;;;;;;;;4983930;28;20448;-86
2024/01/08 02:44:00;;;;;;;11.20;6.25;;;;;;;;;;4981828;28;20023;-84
2024/01/08 02:46:26;;;;;;;13.32;6.97;;;;;;;;;;4978633;28;20102;-83
2024/01/08 02:48:51;;;;;;;11.93;6.68;;;;;;;;;;4980002;28;20117;-84
2024/01/08 02:51:16;;;;;;;11.63;6.85;;;;;;;;;;4967118;28;20081;-83
2024/01/08 02:53:42;;;;;;;10.30;6.25;;;;;;;;;;4968390;28;20084;-85
2024/01/08 02:56:18;;;;;;;11.43;6.63;;;;;;;;;;4985308;28;20102;-84
2024/01/08 02:58:43;;;;;;;11.90;6.45;;;;;;;;;;4980452;28;20045;-83
2024/01/08 03:01:09;;;;;;;12.60;6.65;;;;;;;;;;4980410;28;20110;-83
2024/01/08 03:03:34;;;;;;;11.43;6.57;;;;;;;;;;4958548;28;20042;-83
2024/01/08 03:06:00;;;;;;;12.57;6.72;;;;;;;;;;4981639;28;20050;-84
2024/01/08 03:08:25;;;;;;;11.73;6.88;;;;;;;;;;4981404;28;20042;-85
2024/01/08 03:10:51;;;;;;;11.75;6.82;;;;;;;;;;4964738;28;20485;-85
2024/01/08 03:13:16;;;;;;;13.55;7.13;;;;;;;;;;4980466;28;20513;-84
2024/01/08 03:15:42;;;;;;;12.27;6.60;;;;;;;;;;4962999;28;20030;-84
2024/01/08 03:18:08;;;;;;;12.52;6.72;;;;;;;;;;4987001;28;20035;-83
2024/01/08 03:20:33;;;;;;;12.82;6.70;;;;;;;;;;4980527;28;20401;-83
2024/01/08 03:22:58;;;;;;;12.40;6.68;;;;;;;;;;4979699;28;20230;-83
2024/01/08 03:25:24;;;;;;;12.18;6.68;;;;;;;;;;4970923;28;20037;-83
2024/01/08 03:27:49;;;;;;;12.30;6.78;;;;;;;;;;4978556;28;20188;-83
2024/01/08 03:30:15;;;;;;;12.73;6.97;;;;;;;;;;4965521;28;20553;-84
2024/01/08 03:32:41;;;;;;;11.93;6.85;;;;;;;;;;4976219;28;20043;-83
2024/01/08 03:35:06;;;;;;;11.65;7.07;;;;;;;;;;4982095;28;20034;-83
2024/01/08 03:37:32;;;;;;;13.18;7.10;;;;;;;;;;4967125;28;20102;-83
2024/01/08 03:39:58;;;;;;;12.70;7.65;;;;;;;;;;4985337;28;20066;-83
2024/01/08 03:42:23;;;;;;;15.82;8.40;;;;;;;;;;4977254;28;20034;-83
2024/01/08 03:44:49;;;;;;;14.30;8.40;;;;;;;;;;4962754;28;20084;-85
2024/01/08 03:47:15;;;;;;;12.07;7.40;;;;;;;;;;4965286;28;20049;-84
2024/01/08 03:49:41;;;;;;;14.20;8.43;;;;;;;;;;4961774;28;20126;-82
2024/01/08 03:52:06;;;;;;;14.15;8.55;;;;;;;;;;4984852;28;20045;-85
2024/01/08 03:54:32;;;;;;;17.48;8.35;;;;;;;;;;4980420;28;20109;-83
2024/01/08 03:56:57;;;;;;;15.10;7.95;;;;;;;;;;4980461;28;20069;-83
2024/01/08 03:59:23;;;;;;;13.75;8.05;;;;;;;;;;4982040;28;20034;-84
2024/01/08 04:01:50;;;;;;;14.70;8.00;;;;;;;;;;4979048;28;20034;-83
2024/01/08 04:04:16;;;;;;;13.75;7.38;;;;;;;;;;4978799;28;20492;-83
2024/01/08 04:06:41;;;;;;;12.07;7.60;;;;;;;;;;4972766;28;20034;-84
2024/01/08 04:09:07;;;;;;;14.60;7.60;;;;;;;;;;4977793;28;20027;-82
2024/01/08 04:11:32;;;;;;;13.15;7.57;;;;;;;;;;4965022;28;20149;-83
2024/01/08 04:13:59;;;;;;;13.95;8.32;;;;;;;;;;4980323;28;20094;-83
2024/01/08 04:16:24;;;;;;;13.40;7.97;;;;;;;;;;4982986;28;20037;-84
2024/01/08 04:18:50;;;;;;;13.32;7.93;;;;;;;;;;4963848;28;20035;-83
2024/01/08 04:21:18;;;;;;;12.10;7.55;;;;;;;;;;4982112;28;20480;-83
2024/01/08 04:23:44;;;;;;;13.30;7.47;;;;;;;;;;4961446;28;20044;-84
2024/01/08 04:26:16;;;;;;;12.25;7.18;;;;;;;;;;4979329;28;20118;-82
2024/01/08 04:28:43;;;;;;;15.37;7.50;;;;;;;;;;4977300;28;20045;-84
2024/01/08 04:31:17;;;;;;;13.57;7.65;;;;;;;;;;4961202;28;20100;-82
2024/01/08 04:33:42;;;;;;;11.77;7.00;;;;;;;;;;4978935;28;20041;-83
2024/01/08 04:36:08;;;;;;;13.48;7.50;;;;;;;;;;4979162;28;20101;-83
2024/01/08 04:38:33;;;;;;;12.73;7.15;;;;;;;;;;4980885;28;20073;-83
2024/01/08 04:40:59;;;;;;;13.32;7.68;;;;;;;;;;4976984;28;20030;-83
2024/01/08 04:43:24;;;;;;;13.00;7.25;;;;;;;;;;4981016;28;20480;-84
2024/01/08 04:45:49;;;;;;;12.43;7.63;;;;;;;;;;4967636;28;20617;-83
2024/01/08 04:48:15;;;;;;;14.82;7.80;;;;;;;;;;4991938;28;20046;-83
2024/01/08 04:50:41;;;;;;;13.48;7.70;;;;;;;;;;4982145;28;20045;-83
2024/01/08 04:53:06;;;;;;;14.38;8.15;;;;;;;;;;4980305;28;20030;-83
2024/01/08 04:55:31;;;;;;;14.10;7.60;;;;;;;;;;4981517;28;20061;-83
2024/01/08 04:57:58;;;;;;;15.02;7.93;;;;;;;;;;4980936;28;20022;-83
2024/01/08 05:00:23;;;;;;;12.98;6.97;;;;;;;;;;4967287;28;20046;-84
2024/01/08 05:02:49;;;;;;;11.68;6.75;;;;;;;;;;4965633;28;20034;-84
2024/01/08 05:05:14;;;;;;;11.80;7.22;;;;;;;;;;4982082;28;20723;-83
2024/01/08 05:07:40;;;;;;;11.70;6.85;;;;;;;;;;4962752;28;20027;-84
2024/01/08 05:10:06;;;;;;;12.82;7.50;;;;;;;;;;4983751;28;20088;-85
2024/01/08 05:12:32;;;;;;;12.02;7.00;;;;;;;;;;4964716;28;20101;-84
2024/01/08 05:14:58;;;;;;;13.02;7.15;;;;;;;;;;4979987;28;20043;-83
2024/01/08 05:17:23;;;;;;;13.90;7.30;;;;;;;;;;4981599;28;20026;-82
2024/01/08 05:19:51;;;;;;;12.73;6.63;;;;;;;;;;4979526;28;20034;-83
2024/01/08 05:22:16;;;;;;;12.38;6.90;;;;;;;;;;4979313;28;20415;-83
2024/01/08 05:24:42;;;;;;;13.65;7.25;;;;;;;;;;4964903;28;20042;-83
2024/01/08 05:27:07;;;;;;;13.27;6.97;;;;;;;;;;4981277;28;20026;-84
2024/01/08 05:29:33;;;;;;;15.18;7.38;;;;;;;;;;4980347;28;20177;-84
2024/01/08 05:31:58;;;;;;;11.65;6.80;;;;;;;;;;4963800;28;20113;-83
2024/01/08 05:34:24;;;;;;;12.52;7.20;;;;;;;;;;4978411;28;20377;-84
2024/01/08 05:36:49;;;;;;;12.52;7.13;;;;;;;;;;4977446;28;20039;-84
2024/01/08 05:39:16;;;;;;;12.60;7.07;;;;;;;;;;4980977;28;20041;-83
2024/01/08 05:41:41;;;;;;;14.40;7.60;;;;;;;;;;4961867;28;20038;-83
2024/01/08 05:44:08;;;;;;;13.38;7.47;;;;;;;;;;4981617;28;20023;-84
2024/01/08 05:46:34;;;;;;;12.48;7.20;;;;;;;;;;4969643;28;20531;-85
2024/01/08 05:48:59;;;;;;;11.65;7.03;;;;;;;;;;4981762;28;20038;-83
2024/01/08 05:51:28;;;;;;;13.15;7.38;;;;;;;;;;4973921;28;20178;-83
2024/01/08 05:53:54;;;;;;;15.48;7.18;;;;;;;;;;4983943;28;20035;-84
2024/01/08 05:56:19;;;;;;;14.52;7.43;;;;;;;;;;4987296;28;20493;-85
2024/01/08 05:58:45;;;;;;;14.45;7.68;;;;;;;;;;4952729;28;20032;-84
2024/01/08 06:01:11;;;;;;;14.02;8.27;;;;;;;;;;4986169;28;20023;-83
2024/01/08 06:03:36;;;;;;;13.20;7.25;;;;;;;;;;4982494;28;20034;-82
2024/01/08 06:06:02;;;;;;;13.52;7.78;;;;;;;;;;4983738;28;20070;-83
2024/01/08 06:08:27;;;;;;;19.83;7.72;;;;;;;;;;4981263;28;20030;-83
2024/01/08 06:10:53;;;;;;;13.07;7.63;;;;;;;;;;4984173;28;20037;-83
2024/01/08 06:13:18;;;;;;;14.50;7.85;;;;;;;;;;4997970;28;20248;-83
2024/01/08 06:15:44;;;;;;;14.63;6.82;;;;;;;;;;4980040;28;20042;-82
2024/01/08 06:18:09;;;;;;;16.33;8.07;;;;;;;;;;4978972;28;20480;-85
2024/01/08 06:20:35;;;;;;;13.18;7.85;;;;;;;;;;4983600;28;20065;-83
2024/01/08 06:23:02;;;;;;;13.40;7.93;;;;;;;;;;4984495;28;20082;-83
2024/01/08 06:25:27;;;;;;;13.50;7.60;;;;;;;;;;4987651;28;20046;-83
2024/01/08 06:27:52;;;;;;;12.30;6.88;;;;;;;;;;4971005;28;20026;-83
2024/01/08 06:30:18;;;;;;;12.68;7.50;;;;;;;;;;4986994;28;20546;-85
2024/01/08 06:32:44;;;;;;;19.30;7.57;;;;;;;;;;4985480;28;20057;-83
2024/01/08 06:35:10;;;;;;;12.35;7.15;;;;;;;;;;4967201;28;20029;-84
2024/01/08 06:37:35;;;;;;;14.50;7.97;;;;;;;;;;4982775;28;20042;-83
2024/01/08 06:40:01;;;;;;;15.63;8.40;;;;;;;;;;4979697;28;20027;-84
2024/01/08 06:42:27;;;;;;;14.63;7.38;;;;;;;;;;4988644;28;20031;-83
2024/01/08 06:44:52;;;;;;;13.80;7.55;;;;;;;;;;4986220;28;20030;-83
2024/01/08 06:47:17;;;;;;;16.38;8.27;;;;;;;;;;4986745;28;20104;-84
2024/01/08 06:49:43;;;;;;;23.63;10.80;;;;;;;;;;4959968;28;20038;-83
2024/01/08 06:52:09;;;;;;;24.27;10.70;;;;;;;;;;4986483;28;20113;-82
2024/01/08 06:54:34;;;;;;;15.23;9.30;;;;;;;;;;4984492;28;20096;-84
2024/01/08 06:57:00;;;;;;;17.52;8.93;;;;;;;;;;4987208;28;20029;-84
2024/01/08 06:59:26;;;;;;;25.42;12.30;;;;;;;;;;4982524;28;20038;-85
2024/01/08 07:01:51;;;;;;;15.65;9.02;;;;;;;;;;4966875;28;20034;-83
2024/01/08 07:04:18;;;;;;;20.15;9.95;;;;;;;;;;4958132;28;20038;-85
2024/01/08 07:06:44;;;;;;;14.50;8.85;;;;;;;;;;4968944;28;20053;-84
2024/01/08 07:09:10;;;;;;;15.60;8.55;;;;;;;;;;4985862;28;20121;-83
2024/01/08 07:11:35;;;;;;;15.98;8.55;;;;;;;;;;4967532;28;20115;-83
2024/01/08 07:14:01;;;;;;;15.80;9.30;;;;;;;;;;4986188;28;20017;-85
2024/01/08 07:16:27;;;;;;;15.95;8.27;;;;;;;;;;4981582;28;20027;-84
2024/01/08 07:18:52;;;;;;;13.15;8.07;;;;;;;;;;4977679;28;20122;-83
2024/01/08 07:21:19;;;;;;;14.43;8.05;;;;;;;;;;4970761;28;20053;-84
2024/01/08 07:23:45;;;;;;;15.38;8.80;;;;;;;;;;4977202;28;20424;-84
2024/01/08 07:26:14;;;;;;;19.35;10.43;;;;;;;;;;4946115;28;20809;-84
2024/01/08 07:28:42;;;;;;;15.60;9.32;;;;;;;;;;4976479;28;20030;-82
2024/01/08 07:31:07;;;;;;;16.83;9.23;;;;;;;;;;4960882;28;20116;-82
2024/01/08 07:33:34;;;;;;;14.75;8.55;;;;;;;;;;4965288;28;20488;-83
2024/01/08 07:35:59;;;;;;;14.77;8.70;;;;;;;;;;4982221;28;20042;-84
2024/01/08 07:38:26;;;;;;;16.40;8.57;;;;;;;;;;4979220;28;20035;-83
2024/01/08 07:40:51;;;;;;;17.08;9.00;;;;;;;;;;4948270;28;20048;-87
2024/01/08 07:43:17;;;;;;;13.23;7.50;;;;;;;;;;4970114;28;20026;-82
2024/01/08 07:45:42;;;;;;;18.80;9.63;;;;;;;;;;4982780;28;20058;-84
2024/01/08 07:48:08;;;;;;;20.08;9.32;;;;;;;;;;4983314;28;20030;-83
2024/01/08 07:50:34;;;;;;;15.68;8.75;;;;;;;;;;4949219;28;20046;-81
2024/01/08 07:53:02;;;;;;;14.52;8.55;;;;;;;;;;4971687;28;20037;-86
2024/01/08 07:55:28;;;;;;;15.40;8.38;;;;;;;;;;4986639;28;20084;-84
2024/01/08 07:57:53;;;;;;;14.63;8.00;;;;;;;;;;4980302;28;20423;-84
2024/01/08 08:00:21;;;;;;;16.98;9.10;;;;;;;;;;4983993;28;20077;-84
2024/01/08 08:02:47;;;;;;;13.75;8.20;;;;;;;;;;4979786;28;20038;-83
2024/01/08 08:05:12;;;;;;;14.52;8.30;;;;;;;;;;4965571;28;20081;-83
2024/01/08 08:07:39;;;;;;;14.93;8.70;;;;;;;;;;4963249;28;20601;-85
2024/01/08 08:10:05;;;;;;;15.60;8.70;;;;;;;;;;4983759;28;20042;-84
2024/01/08 08:12:32;;;;;;;17.08;8.93;;;;;;;;;;4971695;28;20041;-83
2024/01/08 08:14:58;;;;;;;15.88;9.07;;;;;;;;;;4980635;28;20139;-83
2024/01/08 08:17:25;;;;;;;15.38;8.23;;;;;;;;;;4979873;28;20035;-83
2024/01/08 08:19:51;;;;;;;15.38;8.50;;;;;;;;;;4976001;28;20116;-84
2024/01/08 08:22:16;;;;;;;16.75;9.18;;;;;;;;;;4983579;28;20097;-84
2024/01/08 08:24:42;;;;;;;16.63;9.70;;;;;;;;;;4981375;28;20189;-84
2024/01/08 08:27:12;;;;;;;16.25;9.07;;;;;;;;;;4968158;28;20160;-83
2024/01/08 08:29:41;;;;;;;17.27;9.75;;;;;;;;;;4979184;28;20062;-83
2024/01/08 08:32:08;;;;;;;14.20;8.55;;;;;;;;;;4982760;28;20030;-83
2024/01/08 08:34:33;;;;;;;13.75;8.40;;;;;;;;;;4985216;28;20047;-83
2024/01/08 08:36:59;;;;;;;13.32;8.07;;;;;;;;;;4980150;28;20037;-83
2024/01/08 08:39:24;;;;;;;15.20;8.32;;;;;;;;;;4965292;28;20561;-84
2024/01/08 08:41:50;;;;;;;17.88;9.05;;;;;;;;;;4960398;28;20039;-83
2024/01/08 08:44:17;;;;;;;16.13;9.00;;;;;;;;;;4966974;28;20030;-84
2024/01/08 08:46:44;;;;;;;19.27;9.75;;;;;;;;;;4979774;28;20038;-83
2024/01/08 08:49:10;;;;;;;18.92;10.02;;;;;;;;;;4961757;28;20046;-84
2024/01/08 08:51:36;;;;;;;18.58;9.60;;;;;;;;;;4964220;28;20038;-82
2024/01/08 08:54:03;;;;;;;20.83;10.88;;;;;;;;;;4980947;28;20057;-82
2024/01/08 08:56:32;;;;;;;16.17;9.75;;;;;;;;;;4980294;28;20042;-82
2024/01/08 08:58:58;;;;;;;16.58;8.98;;;;;;;;;;4974114;28;20031;-81
2024/01/08 09:01:24;;;;;;;15.57;8.68;;;;;;;;;;4991452;28;20057;-81
2024/01/08 09:03:50;;;;;;;15.75;8.05;;;;;;;;;;4978997;28;20045;-83
2024/01/08 09:06:15;;;;;;;14.82;9.05;;;;;;;;;;4980468;28;20555;-82
2024/01/08 09:08:41;;;;;;;14.38;8.40;;;;;;;;;;4964156;28;20040;-81
2024/01/08 09:11:08;;;;;;;15.82;7.97;;;;;;;;;;4980489;28;20029;-80
2024/01/08 09:13:33;;;;;;;14.40;8.25;;;;;;;;;;4984275;28;20050;-81
2024/01/08 09:15:59;;;;;;;16.92;7.82;;;;;;;;;;4984941;28;20038;-82
2024/01/08 09:18:26;;;;;;;15.75;9.25;;;;;;;;;;4965540;28;20038;-83
2024/01/08 09:20:52;;;;;;;15.02;7.78;;;;;;;;;;4966991;28;20493;-82
2024/01/08 09:23:17;;;;;;;12.23;7.57;;;;;;;;;;4985283;28;20034;-83
2024/01/08 09:25:43;;;;;;;13.93;7.70;;;;;;;;;;4984036;28;20043;-84
2024/01/08 09:28:08;;;;;;;13.23;7.60;;;;;;;;;;4989174;28;20472;-82
2024/01/08 09:30:34;;;;;;;14.82;7.75;;;;;;;;;;4986872;28;20038;-83
2024/01/08 09:32:59;;;;;;;12.95;7.75;;;;;;;;;;4982680;28;20195;-82
2024/01/08 09:35:25;;;;;;;12.02;7.30;;;;;;;;;;4987669;28;20510;-84
2024/01/08 09:37:51;;;;;;;15.68;7.78;;;;;;;;;;4987283;28;20504;-83
2024/01/08 09:40:16;;;;;;;14.25;7.80;;;;;;;;;;4985775;28;20026;-84
2024/01/08 09:42:42;;;;;;;15.02;6.93;;;;;;;;;;4987132;28;20034;-84
2024/01/08 09:45:12;;;;;;;13.07;7.20;;;;;;;;;;4983229;28;20042;-84
2024/01/08 09:47:40;;;;;;;12.25;7.65;;;;;;;;;;4985332;28;20047;-84
2024/01/08 09:50:09;;;;;;;11.48;6.63;;;;;;;;;;4986406;28;20037;-82
2024/01/08 09:52:39;;;;;;;12.75;8.02;;;;;;;;;;4983209;28;20082;-84
2024/01/08 09:55:08;;;;;;;13.68;7.93;;;;;;;;;;4968160;28;20492;-83
2024/01/08 09:57:33;;;;;;;15.40;8.57;;;;;;;;;;4967995;28;20039;-83
2024/01/08 09:59:59;;;;;;;15.45;9.13;;;;;;;;;;4970088;28;20042;-83
2024/01/08 10:02:24;;;;;;;14.75;8.30;;;;;;;;;;4989345;28;20559;-81
2024/01/08 10:04:50;;;;;;;11.73;6.93;;;;;;;;;;4981118;28;20121;-80
2024/01/08 10:07:17;;;;;;;18.92;9.82;;;;;;;;;;4987651;28;20065;-81
2024/01/08 10:09:42;;;;;;;22.00;9.60;;;;;;;;;;4985391;28;20050;-80
2024/01/08 10:12:11;;;;;;;15.80;9.23;;;;;;;;;;4986154;28;20480;-82
2024/01/08 10:14:37;;;;;;;16.30;8.10;;;;;;;;;;4984023;28;20141;-80
2024/01/08 10:17:06;;;;;;;15.30;8.43;;;;;;;;;;4985740;28;20500;-81
2024/01/08 10:19:32;;;;;;;15.52;8.57;;;;;;;;;;4984381;28;20053;-80
2024/01/08 10:22:11;;;;;;;18.90;9.50;;;;;;;;;;4984113;28;20066;-79
2024/01/08 10:24:38;;;;;;;15.85;8.13;;;;;;;;;;4991666;28;20042;-79
2024/01/08 10:27:04;;;;;;;13.82;7.43;;;;;;;;;;4980228;28;20046;-79
2024/01/08 10:29:30;;;;;;;13.57;8.02;;;;;;;;;;4985035;28;20064;-79
2024/01/08 10:31:56;;;;;;;15.95;8.43;;;;;;;;;;4965817;28;20090;-81
2024/01/08 10:34:23;;;;;;;17.67;8.65;;;;;;;;;;4985046;28;20038;-78
2024/01/08 10:36:50;;;;;;;12.57;7.72;;;;;;;;;;4982426;28;20489;-79
2024/01/08 10:39:17;;;;;;;11.00;6.70;;;;;;;;;;4965337;28;20078;-79
2024/01/08 10:41:43;;;;;;;14.68;8.10;;;;;;;;;;4987498;28;20031;-79
2024/01/08 10:44:08;;;;;;;12.70;6.47;;;;;;;;;;4968227;28;20121;-81
2024/01/08 10:46:56;;;;;;;11.55;6.55;;;;;;;;;;4981594;28;20140;-79
2024/01/08 10:49:31;;;;;;;12.90;7.25;;;;;;;;;;4984906;28;20041;-79
2024/01/08 10:51:59;;;;;;;14.13;8.48;;;;;;;;;;4965663;28;21170;-81
2024/01/08 10:54:32;;;;;;;16.50;7.90;;;;;;;;;;4980031;28;20106;-80
2024/01/08 10:56:59;;;;;;;14.52;7.00;;;;;;;;;;4982367;28;20066;-79
2024/01/08 10:59:27;;;;;;;12.98;7.55;;;;;;;;;;4967572;28;20039;-83
2024/01/08 11:01:53;;;;;;;16.30;8.75;;;;;;;;;;4969710;28;20045;-81
2024/01/08 11:04:19;;;;;;;13.85;8.02;;;;;;;;;;4968853;28;20026;-79
2024/01/08 11:06:45;;;;;;;18.15;8.82;;;;;;;;;;4984180;28;20484;-82
2024/01/08 11:09:31;;;;;;;14.32;7.97;;;;;;;;;;4981847;28;20041;-78
2024/01/08 11:11:57;;;;;;;14.77;7.15;;;;;;;;;;4983470;28;20051;-81
2024/01/08 11:14:23;;;;;;;14.02;8.40;;;;;;;;;;4966798;28;20119;-80
2024/01/08 11:16:49;;;;;;;12.77;7.40;;;;;;;;;;4982257;28;20026;-80
2024/01/08 11:19:17;;;;;;;13.63;7.20;;;;;;;;;;4986136;28;20033;-80
2024/01/08 11:21:43;;;;;;;12.98;6.97;;;;;;;;;;4984005;28;20042;-81
2024/01/08 11:24:09;;;;;;;12.82;7.18;;;;;;;;;;4987220;28;20030;-79
2024/01/08 11:26:41;;;;;;;14.35;7.57;;;;;;;;;;4983942;28;20046;-79
2024/01/08 11:29:11;;;;;;;13.98;6.78;;;;;;;;;;4956424;28;20031;-79
2024/01/08 11:31:58;;;;;;;13.05;7.15;;;;;;;;;;4952807;28;20056;-79
2024/01/08 11:34:43;;;;;;;13.68;6.95;;;;;;;;;;4985522;28;20030;-80
2024/01/08 11:37:36;;;;;;;17.70;7.82;;;;;;;;;;4984304;28;20026;-79
2024/01/08 11:40:18;;;;;;;14.13;6.82;;;;;;;;;;4964573;28;20126;-80
2024/01/08 11:42:49;;;;;;;13.95;7.68;;;;;;;;;;4976939;28;20041;-79
2024/01/08 11:45:16;;;;;;;12.43;7.18;;;;;;;;;;4981006;28;20038;-78
2024/01/08 11:47:43;;;;;;;12.40;7.28;;;;;;;;;;4963614;28;20448;-79
2024/01/08 11:50:09;;;;;;;13.35;7.25;;;;;;;;;;4985093;28;20073;-80
2024/01/08 11:52:39;;;;;;;12.57;7.20;;;;;;;;;;4960384;28;20153;-80
2024/01/08 11:55:09;;;;;;;22.50;9.70;;;;;;;;;;4968830;28;20069;-80
2024/01/08 11:57:35;;;;;;;20.73;10.43;;;;;;;;;;4987625;28;20038;-80
2024/01/08 12:00:14;;;;;;;13.27;7.90;;;;;;;;;;4988525;28;20041;-81
2024/01/08 12:02:39;;;;;;;14.70;8.15;;;;;;;;;;4989378;28;20042;-80
2024/01/08 12:05:05;;;;;;;14.20;7.78;;;;;;;;;;4974442;28;20053;-81
2024/01/08 12:07:32;;;;;;;14.63;8.32;;;;;;;;;;4985817;28;20058;-81
2024/01/08 12:10:04;;;;;;;13.63;7.82;;;;;;;;;;4985729;28;20044;-80
2024/01/08 12:12:29;;;;;;;13.32;8.27;;;;;;;;;;4971716;28;20131;-80
2024/01/08 12:14:55;;;;;;;16.83;8.35;;;;;;;;;;4989075;28;20069;-81
2024/01/08 12:17:22;;;;;;;15.50;7.63;;;;;;;;;;4986374;28;20517;-81
2024/01/08 12:19:52;;;;;;;14.38;8.00;;;;;;;;;;4969870;28;20039;-81
2024/01/08 12:22:19;;;;;;;12.32;7.07;;;;;;;;;;4989697;28;20182;-81
2024/01/08 12:24:55;;;;;;;16.52;8.23;;;;;;;;;;4990254;28;20049;-80
2024/01/08 12:27:23;;;;;;;18.13;9.18;;;;;;;;;;4983634;28;20045;-81
2024/01/08 12:29:50;;;;;;;17.30;8.23;;;;;;;;;;4980214;28;20041;-80
2024/01/08 12:32:19;;;;;;;15.32;7.65;;;;;;;;;;4986214;28;20065;-80
2024/01/08 12:34:45;;;;;;;14.98;7.05;;;;;;;;;;4982382;28;20046;-83
2024/01/08 12:37:13;;;;;;;12.55;7.00;;;;;;;;;;4973420;28;20053;-80
2024/01/08 12:39:38;;;;;;;12.90;7.05;;;;;;;;;;4990529;28;20062;-81
2024/01/08 12:42:07;;;;;;;12.82;7.35;;;;;;;;;;4985771;28;20042;-81
2024/01/08 12:44:33;;;;;;;11.00;6.25;;;;;;;;;;4988678;28;20049;-79
2024/01/08 12:47:01;;;;;;;13.82;7.57;;;;;;;;;;4974353;28;20030;-80
2024/01/08 12:49:26;;;;;;;11.55;6.90;;;;;;;;;;4968061;28;20034;-79
2024/01/08 12:51:54;;;;;;;14.27;7.20;;;;;;;;;;4978993;28;20046;-79
2024/01/08 12:54:20;;;;;;;12.70;7.15;;;;;;;;;;4986053;28;20022;-79
2024/01/08 12:56:46;;;;;;;11.82;6.78;;;;;;;;;;4987977;28;20092;-80
2024/01/08 12:59:16;;;;;;;12.75;7.25;;;;;;;;;;4971815;28;20033;-78
2024/01/08 13:01:43;;;;;;;11.90;6.82;;;;;;;;;;4986663;28;20504;-80
2024/01/08 13:04:16;;;;;;;12.25;6.63;;;;;;;;;;4988191;28;20049;-80
2024/01/08 13:06:41;;;;;;;10.10;5.95;;;;;;;;;;4984783;28;20561;-79
2024/01/08 13:09:08;;;;;;;11.48;6.65;;;;;;;;;;4965540;28;20039;-80
2024/01/08 13:11:34;;;;;;;12.88;6.75;;;;;;;;;;4989888;28;20015;-81
2024/01/08 13:14:00;;;;;;;11.27;6.47;;;;;;;;;;4987878;28;20473;-82
2024/01/08 13:16:25;;;;;;;10.27;6.43;;;;;;;;;;4986191;28;20070;-82
2024/01/08 13:18:51;;;;;;;9.95;5.95;;;;;;;;;;4986176;28;20043;-83
2024/01/08 13:21:16;;;;;;;10.15;6.22;;;;;;;;;;4987521;28;20037;-81
2024/01/08 13:23:42;;;;;;;11.60;6.63;;;;;;;;;;4971620;28;20462;-82
2024/01/08 13:26:12;;;;;;;12.27;6.47;;;;;;;;;;4988361;28;20039;-79
2024/01/08 13:28:39;;;;;;;12.20;6.97;;;;;;;;;;4989392;28;20045;-81
2024/01/08 13:31:05;;;;;;;12.38;6.85;;;;;;;;;;4984203;28;20023;-82
2024/01/08 13:33:32;;;;;;;9.82;6.43;;;;;;;;;;4972519;28;20041;-80
2024/01/08 13:35:58;;;;;;;10.60;6.13;;;;;;;;;;4984884;28;20039;-80
2024/01/08 13:38:25;;;;;;;10.45;6.30;;;;;;;;;;4987297;28;20468;-82
2024/01/08 13:40:54;;;;;;;11.50;6.85;;;;;;;;;;4984482;28;20113;-81
2024/01/08 13:43:20;;;;;;;11.65;6.38;;;;;;;;;;4975163;28;20045;-81
2024/01/08 13:45:45;;;;;;;13.80;7.03;;;;;;;;;;4985191;28;20069;-82
2024/01/08 13:48:11;;;;;;;12.25;7.10;;;;;;;;;;4971457;28;20038;-78
2024/01/08 13:50:38;;;;;;;10.75;6.13;;;;;;;;;;4969359;28;20034;-79
2024/01/08 13:53:03;;;;;;;12.43;6.07;;;;;;;;;;4987116;28;20151;-80
2024/01/08 13:55:30;;;;;;;11.57;6.13;;;;;;;;;;4964696;28;20042;-81
2024/01/08 13:57:56;;;;;;;11.02;6.07;;;;;;;;;;4983785;28;20030;-78
2024/01/08 14:00:22;;;;;;;10.95;6.25;;;;;;;;;;4983618;28;20504;-82
2024/01/08 14:02:49;;;;;;;10.75;6.10;;;;;;;;;;4979905;28;20039;-82
2024/01/08 14:05:15;;;;;;;10.27;6.10;;;;;;;;;;4985454;28;20049;-81
2024/01/08 14:07:41;;;;;;;10.07;6.00;;;;;;;;;;4986287;28;20031;-83
2024/01/08 14:10:09;;;;;;;11.95;6.60;;;;;;;;;;4990384;28;20034;-83
2024/01/08 14:12:36;;;;;;;10.88;6.20;;;;;;;;;;4992053;28;20057;-82
2024/01/08 14:15:02;;;;;;;10.77;6.60;;;;;;;;;;4983101;28;20046;-81
2024/01/08 14:17:27;;;;;;;13.57;7.55;;;;;;;;;;4968055;28;20094;-81
2024/01/08 14:19:53;;;;;;;12.82;7.30;;;;;;;;;;4989304;28;20535;-82
2024/01/08 14:22:19;;;;;;;10.85;6.13;;;;;;;;;;4988214;28;20038;-81
2024/01/08 14:24:44;;;;;;;14.40;7.25;;;;;;;;;;4984930;28;20053;-80
2024/01/08 14:27:10;;;;;;;14.98;7.53;;;;;;;;;;4985901;28;20022;-81